• Join FlightAware (Why Join?)
  • Login
  • US Flag 
10:13PM EDT


 

Airport Tracker/Info


-or-


 

Live Flight TrackerFlight Track Log ✈ USC105 ✈ 01-May-2013 ✈ KLCK - KBKL

Flight Track Log - Related Links

Times and Time Zones

All times are in EDT time to prevent confusion due to time zone crossing. See the USC105 flight status page for this flight to view local times or setup timezone preferences in your user account.

Time Position Orientation Groundspeed Altitude Reporting Facility
EDT Latitude Longitude Course Direction KTS MPH feet Rate Location/Type
10:00PM 39.8239 -82.9197 42° Northeast 113 130 1,200  Level Indianapolis Center
10:01PM 39.8514 -82.8875 42° Northeast 119 137 2,300 960 Climbing Indianapolis Center
10:02PM 39.8664 -82.8747 33° Northeast 118 136 2,800 960 Climbing Indianapolis Center
10:02PM 39.8817 -82.8719 North 133 153 3,300 1,020 Climbing Indianapolis Center
10:03PM 39.9008 -82.8592 27° Northeast 124 143 3,900 960 Climbing Indianapolis Center
10:03PM 39.9125 -82.8483 35° Northeast 128 147 4,300 960 Climbing Indianapolis Center
10:04PM 39.9308 -82.8339 31° Northeast 127 146 4,900 960 Climbing Indianapolis Center
10:04PM 39.9478 -82.8222 28° Northeast 129 148 5,400 840 Climbing Indianapolis Center
10:05PM 39.9631 -82.8086 34° Northeast 132 152 5,800 840 Climbing Indianapolis Center
10:05PM 39.9806 -82.7989 23° Northeast 133 153 6,300 960 Climbing Indianapolis Center
10:06PM 39.9958 -82.7842 36° Northeast 133 153 6,800 780 Climbing Indianapolis Center
10:06PM 40.0117 -82.7725 29° Northeast 135 155 7,100 240 Climbing Indianapolis Center
10:07PM 40.0294 -82.7572 33° Northeast 139 160 7,100 -120 Level Indianapolis Center
10:07PM 40.0556 -82.7419 24° Northeast 179 206 7,000  Descending Indianapolis Center
10:08PM 40.0744 -82.7275 30° Northeast 177 204 7,100 60 Climbing Indianapolis Center
10:08PM 40.0992 -82.7142 22° Northeast 177 204 7,100  Level Indianapolis Center
10:09PM 40.1183 -82.7031 24° Northeast 172 198 7,100  Level Indianapolis Center
10:09PM 40.1406 -82.6914 22° Northeast 166 191 7,100  Level Indianapolis Center
10:10PM 40.1603 -82.6761 31° Northeast 168 193 7,100 -120 Level Indianapolis Center
10:10PM 40.1800 -82.6631 27° Northeast 171 197 7,000  Descending Indianapolis Center
10:11PM 40.2039 -82.6450 30° Northeast 177 204 7,100 60 Climbing Indianapolis Center
10:11PM 40.2217 -82.6322 29° Northeast 176 203 7,100  Level Indianapolis Center
10:12PM 40.2475 -82.6144 28° Northeast 175 201 7,100  Level Indianapolis Center
10:12PM 40.2656 -82.6042 23° Northeast 178 205 7,100  Level Indianapolis Center
10:13PM 40.2917 -82.5822 33° Northeast 179 206 7,100  Level Indianapolis Center
10:14PM 40.3369 -82.5519 27° Northeast 183 211 7,100  Level Indianapolis Center
10:15PM 40.3814 -82.5186 30° Northeast 182 209 7,100  Level Indianapolis Center
10:16PM 40.4258 -82.4892 27° Northeast 178 205 7,100  Level Indianapolis Center
10:17PM 40.4692 -82.4564 30° Northeast 177 204 7,100  Level Indianapolis Center
10:18PM 40.5142 -82.4244 28° Northeast 181 208 7,100  Level Indianapolis Center
10:19PM 40.5581 -82.3922 29° Northeast 179 206 7,100 -60 Level Indianapolis Center
10:20PM 40.6028 -82.3606 28° Northeast 180 207 7,000 -120 Descending Indianapolis Center
10:21PM 40.6353 -82.3397 26° Northeast 181 208 7,000  Level Cleveland Center
10:22PM 40.6794 -82.3081 29° Northeast 180 207 7,000  Level Cleveland Center
10:23PM 40.7217 -82.2761 30° Northeast 179 206 7,000  Level Cleveland Center
10:24PM 40.7639 -82.2472 27° Northeast 178 205 7,000  Level Cleveland Center
10:25PM 40.8039 -82.2181 29° Northeast 177 204 7,000  Level Cleveland Center
10:26PM 40.8522 -82.1808 30° Northeast 180 207 7,000  Level Cleveland Center
10:27PM 40.8964 -82.1517 27° Northeast 177 204 7,000  Level Cleveland Center
10:28PM 40.9386 -82.1169 32° Northeast 179 206 7,000  Level Cleveland Center
10:29PM 40.9806 -82.0875 28° Northeast 179 206 7,000  Level Cleveland Center
10:30PM 41.0250 -82.0556 28° Northeast 179 206 7,000  Level Cleveland Center
10:31PM 41.0733 -82.0208 28° Northeast 177 204 7,000  Level Cleveland Center
10:32PM 41.1153 -81.9914 28° Northeast 178 205 7,000  Level Cleveland Center
10:33PM 41.1639 -81.9539 30° Northeast 178 205 7,000 -120 Level Cleveland Center
10:34PM 41.2122 -81.9217 27° Northeast 172 198 6,800 -480 Descending Cleveland Center
10:35PM 41.2564 -81.8814 34° Northeast 193 222 6,000 -660 Descending Cleveland Center
10:36PM 41.3006 -81.8461 31° Northeast 184 212 5,500 -840 Descending Cleveland Center
10:37PM 41.3428 -81.8028 38° Northeast 197 227 4,400 -1,200 Descending Cleveland Center
10:38PM 41.3828 -81.7428 48° Northeast 190 219 3,000 -720 Descending Cleveland Center
10:39PM 41.4083 -81.6961 54° Northeast 160 184 2,900 -540 Descending Cleveland Center
10:40PM 41.4603 -81.7136 346° North 205 236 2,000 -840 Descending Cleveland Center
10:41PM 41.4956 -81.7392 332° Northwest 136 157 1,300 -600 Descending Cleveland Center
10:42PM 41.5064 -81.7061 66° East 86 99 900 -420 Descending Cleveland Center